sensor_id;sensor_type;location;lat;lon;timestamp;P1;durP1;ratioP1;P2;durP2;ratioP2
72261;SDS011;60173;52.112;8.648;2023-10-19T00:00:43;25.90;;;16.77;;
72261;SDS011;60173;52.112;8.648;2023-10-19T00:03:09;27.65;;;16.73;;
72261;SDS011;60173;52.112;8.648;2023-10-19T00:05:37;24.75;;;16.60;;
72261;SDS011;60173;52.112;8.648;2023-10-19T00:08:05;22.23;;;15.52;;
72261;SDS011;60173;52.112;8.648;2023-10-19T00:10:32;24.73;;;16.83;;
72261;SDS011;60173;52.112;8.648;2023-10-19T00:12:59;28.23;;;17.65;;
72261;SDS011;60173;52.112;8.648;2023-10-19T00:15:26;27.83;;;18.05;;
72261;SDS011;60173;52.112;8.648;2023-10-19T00:17:52;24.58;;;16.55;;
72261;SDS011;60173;52.112;8.648;2023-10-19T00:20:19;26.13;;;17.95;;
72261;SDS011;60173;52.112;8.648;2023-10-19T00:22:45;27.85;;;17.85;;
72261;SDS011;60173;52.112;8.648;2023-10-19T00:25:12;27.85;;;17.60;;
72261;SDS011;60173;52.112;8.648;2023-10-19T00:27:39;29.92;;;18.58;;
72261;SDS011;60173;52.112;8.648;2023-10-19T00:30:06;28.02;;;17.75;;
72261;SDS011;60173;52.112;8.648;2023-10-19T00:32:32;27.70;;;17.45;;
72261;SDS011;60173;52.112;8.648;2023-10-19T00:34:59;27.90;;;18.30;;
72261;SDS011;60173;52.112;8.648;2023-10-19T00:37:25;32.30;;;19.40;;
72261;SDS011;60173;52.112;8.648;2023-10-19T00:39:52;27.42;;;17.50;;
72261;SDS011;60173;52.112;8.648;2023-10-19T00:42:19;31.30;;;19.13;;
72261;SDS011;60173;52.112;8.648;2023-10-19T00:44:46;31.08;;;18.08;;
72261;SDS011;60173;52.112;8.648;2023-10-19T00:47:12;29.55;;;18.80;;
72261;SDS011;60173;52.112;8.648;2023-10-19T00:49:39;31.15;;;20.25;;
72261;SDS011;60173;52.112;8.648;2023-10-19T00:52:06;30.77;;;19.77;;
72261;SDS011;60173;52.112;8.648;2023-10-19T00:54:34;30.00;;;19.83;;
72261;SDS011;60173;52.112;8.648;2023-10-19T00:57:02;30.02;;;19.92;;
72261;SDS011;60173;52.112;8.648;2023-10-19T00:59:29;34.35;;;20.65;;
72261;SDS011;60173;52.112;8.648;2023-10-19T01:01:56;30.90;;;19.88;;
72261;SDS011;60173;52.112;8.648;2023-10-19T01:04:23;29.52;;;19.77;;
72261;SDS011;60173;52.112;8.648;2023-10-19T01:06:50;31.52;;;20.02;;
72261;SDS011;60173;52.112;8.648;2023-10-19T01:09:16;34.55;;;21.33;;
72261;SDS011;60173;52.112;8.648;2023-10-19T01:11:43;32.08;;;20.58;;
72261;SDS011;60173;52.112;8.648;2023-10-19T01:14:22;33.58;;;20.42;;
72261;SDS011;60173;52.112;8.648;2023-10-19T01:16:49;31.05;;;20.30;;
72261;SDS011;60173;52.112;8.648;2023-10-19T01:19:15;34.00;;;22.00;;
72261;SDS011;60173;52.112;8.648;2023-10-19T01:21:42;33.25;;;21.38;;
72261;SDS011;60173;52.112;8.648;2023-10-19T01:24:08;36.28;;;20.98;;
72261;SDS011;60173;52.112;8.648;2023-10-19T01:26:35;29.75;;;20.35;;
72261;SDS011;60173;52.112;8.648;2023-10-19T01:29:01;33.78;;;22.35;;
72261;SDS011;60173;52.112;8.648;2023-10-19T01:31:28;35.65;;;22.77;;
72261;SDS011;60173;52.112;8.648;2023-10-19T01:33:55;40.13;;;23.25;;
72261;SDS011;60173;52.112;8.648;2023-10-19T01:36:25;33.60;;;23.83;;
72261;SDS011;60173;52.112;8.648;2023-10-19T01:38:52;36.10;;;22.77;;
72261;SDS011;60173;52.112;8.648;2023-10-19T01:41:23;38.33;;;23.25;;
72261;SDS011;60173;52.112;8.648;2023-10-19T01:43:51;41.95;;;26.00;;
72261;SDS011;60173;52.112;8.648;2023-10-19T01:46:18;38.80;;;23.50;;
72261;SDS011;60173;52.112;8.648;2023-10-19T01:48:46;36.58;;;22.67;;
72261;SDS011;60173;52.112;8.648;2023-10-19T01:51:12;37.28;;;23.98;;
72261;SDS011;60173;52.112;8.648;2023-10-19T01:53:39;39.92;;;22.60;;
72261;SDS011;60173;52.112;8.648;2023-10-19T01:56:06;41.65;;;24.05;;
72261;SDS011;60173;52.112;8.648;2023-10-19T01:58:33;33.88;;;22.75;;
72261;SDS011;60173;52.112;8.648;2023-10-19T02:00:59;39.40;;;24.23;;
72261;SDS011;60173;52.112;8.648;2023-10-19T02:03:26;33.75;;;22.60;;
72261;SDS011;60173;52.112;8.648;2023-10-19T02:05:59;33.45;;;21.95;;
72261;SDS011;60173;52.112;8.648;2023-10-19T02:08:26;36.35;;;22.38;;
72261;SDS011;60173;52.112;8.648;2023-10-19T02:10:53;36.83;;;22.02;;
72261;SDS011;60173;52.112;8.648;2023-10-19T02:13:20;36.63;;;23.50;;
72261;SDS011;60173;52.112;8.648;2023-10-19T02:15:47;35.10;;;22.77;;
72261;SDS011;60173;52.112;8.648;2023-10-19T02:18:13;36.50;;;21.92;;
72261;SDS011;60173;52.112;8.648;2023-10-19T02:20:40;35.28;;;22.58;;
72261;SDS011;60173;52.112;8.648;2023-10-19T02:23:07;36.90;;;23.52;;
72261;SDS011;60173;52.112;8.648;2023-10-19T02:25:34;35.78;;;22.70;;
72261;SDS011;60173;52.112;8.648;2023-10-19T02:28:00;35.78;;;23.08;;
72261;SDS011;60173;52.112;8.648;2023-10-19T02:30:27;37.25;;;22.75;;
72261;SDS011;60173;52.112;8.648;2023-10-19T02:32:53;34.75;;;22.73;;
72261;SDS011;60173;52.112;8.648;2023-10-19T02:35:19;41.92;;;25.55;;
72261;SDS011;60173;52.112;8.648;2023-10-19T02:37:46;39.38;;;25.27;;
72261;SDS011;60173;52.112;8.648;2023-10-19T02:40:13;38.55;;;23.52;;
72261;SDS011;60173;52.112;8.648;2023-10-19T02:42:39;39.22;;;26.38;;
72261;SDS011;60173;52.112;8.648;2023-10-19T02:45:07;44.38;;;27.48;;
72261;SDS011;60173;52.112;8.648;2023-10-19T02:47:33;40.47;;;25.50;;
72261;SDS011;60173;52.112;8.648;2023-10-19T02:50:00;40.03;;;24.50;;
72261;SDS011;60173;52.112;8.648;2023-10-19T02:52:26;35.95;;;23.25;;
72261;SDS011;60173;52.112;8.648;2023-10-19T02:54:53;32.45;;;21.58;;
72261;SDS011;60173;52.112;8.648;2023-10-19T02:57:19;37.10;;;21.67;;
72261;SDS011;60173;52.112;8.648;2023-10-19T02:59:45;31.17;;;20.27;;
72261;SDS011;60173;52.112;8.648;2023-10-19T03:02:12;35.15;;;22.02;;
72261;SDS011;60173;52.112;8.648;2023-10-19T03:04:39;34.17;;;21.30;;
72261;SDS011;60173;52.112;8.648;2023-10-19T03:07:06;34.63;;;21.35;;
72261;SDS011;60173;52.112;8.648;2023-10-19T03:09:33;28.60;;;19.25;;
72261;SDS011;60173;52.112;8.648;2023-10-19T03:11:59;32.97;;;21.17;;
72261;SDS011;60173;52.112;8.648;2023-10-19T03:14:26;32.63;;;20.80;;
72261;SDS011;60173;52.112;8.648;2023-10-19T03:16:53;32.92;;;19.55;;
72261;SDS011;60173;52.112;8.648;2023-10-19T03:19:20;33.00;;;21.33;;
72261;SDS011;60173;52.112;8.648;2023-10-19T03:21:47;31.10;;;19.77;;
72261;SDS011;60173;52.112;8.648;2023-10-19T03:24:13;30.48;;;19.00;;
72261;SDS011;60173;52.112;8.648;2023-10-19T03:26:39;30.55;;;19.77;;
72261;SDS011;60173;52.112;8.648;2023-10-19T03:29:06;30.05;;;19.55;;
72261;SDS011;60173;52.112;8.648;2023-10-19T03:31:32;31.55;;;20.13;;
72261;SDS011;60173;52.112;8.648;2023-10-19T03:33:59;27.13;;;17.50;;
72261;SDS011;60173;52.112;8.648;2023-10-19T03:36:25;25.95;;;17.13;;
72261;SDS011;60173;52.112;8.648;2023-10-19T03:38:52;22.75;;;15.55;;
72261;SDS011;60173;52.112;8.648;2023-10-19T03:41:19;21.52;;;14.90;;
72261;SDS011;60173;52.112;8.648;2023-10-19T03:43:49;24.35;;;15.45;;
72261;SDS011;60173;52.112;8.648;2023-10-19T03:46:15;24.55;;;15.93;;
72261;SDS011;60173;52.112;8.648;2023-10-19T03:48:42;23.98;;;15.57;;
72261;SDS011;60173;52.112;8.648;2023-10-19T03:51:08;19.48;;;13.07;;
72261;SDS011;60173;52.112;8.648;2023-10-19T03:53:34;19.83;;;13.82;;
72261;SDS011;60173;52.112;8.648;2023-10-19T03:56:03;25.13;;;16.77;;
72261;SDS011;60173;52.112;8.648;2023-10-19T03:58:30;21.58;;;13.82;;
72261;SDS011;60173;52.112;8.648;2023-10-19T04:00:57;21.75;;;15.52;;
72261;SDS011;60173;52.112;8.648;2023-10-19T04:03:23;21.30;;;14.85;;
72261;SDS011;60173;52.112;8.648;2023-10-19T04:05:49;23.35;;;16.40;;
72261;SDS011;60173;52.112;8.648;2023-10-19T04:08:16;23.00;;;15.85;;
72261;SDS011;60173;52.112;8.648;2023-10-19T04:10:42;25.25;;;16.85;;
72261;SDS011;60173;52.112;8.648;2023-10-19T04:13:09;24.75;;;16.48;;
72261;SDS011;60173;52.112;8.648;2023-10-19T04:15:39;27.67;;;17.67;;
72261;SDS011;60173;52.112;8.648;2023-10-19T04:18:05;23.35;;;16.05;;
72261;SDS011;60173;52.112;8.648;2023-10-19T04:20:32;27.25;;;17.40;;
72261;SDS011;60173;52.112;8.648;2023-10-19T04:22:58;24.75;;;17.13;;
72261;SDS011;60173;52.112;8.648;2023-10-19T04:25:25;28.55;;;19.45;;
72261;SDS011;60173;52.112;8.648;2023-10-19T04:27:51;23.75;;;16.58;;
72261;SDS011;60173;52.112;8.648;2023-10-19T04:30:18;23.15;;;16.52;;
72261;SDS011;60173;52.112;8.648;2023-10-19T04:32:45;23.17;;;15.30;;
72261;SDS011;60173;52.112;8.648;2023-10-19T04:35:12;27.90;;;14.80;;
72261;SDS011;60173;52.112;8.648;2023-10-19T04:37:39;24.70;;;17.85;;
72261;SDS011;60173;52.112;8.648;2023-10-19T04:40:06;24.85;;;16.33;;
72261;SDS011;60173;52.112;8.648;2023-10-19T04:42:33;20.75;;;14.20;;
72261;SDS011;60173;52.112;8.648;2023-10-19T04:44:59;20.23;;;14.30;;
72261;SDS011;60173;52.112;8.648;2023-10-19T04:47:26;27.00;;;18.52;;
72261;SDS011;60173;52.112;8.648;2023-10-19T04:49:52;23.30;;;16.20;;
72261;SDS011;60173;52.112;8.648;2023-10-19T04:52:19;23.58;;;16.50;;
72261;SDS011;60173;52.112;8.648;2023-10-19T04:54:45;22.25;;;16.33;;
72261;SDS011;60173;52.112;8.648;2023-10-19T04:57:12;28.05;;;18.58;;
72261;SDS011;60173;52.112;8.648;2023-10-19T04:59:38;25.52;;;17.08;;
72261;SDS011;60173;52.112;8.648;2023-10-19T05:02:04;22.13;;;16.20;;
72261;SDS011;60173;52.112;8.648;2023-10-19T05:04:31;24.92;;;17.63;;
72261;SDS011;60173;52.112;8.648;2023-10-19T05:06:58;25.65;;;18.42;;
72261;SDS011;60173;52.112;8.648;2023-10-19T05:09:24;22.95;;;16.35;;
72261;SDS011;60173;52.112;8.648;2023-10-19T05:11:50;27.60;;;18.05;;
72261;SDS011;60173;52.112;8.648;2023-10-19T05:14:17;28.48;;;18.13;;
72261;SDS011;60173;52.112;8.648;2023-10-19T05:16:43;23.02;;;16.77;;
72261;SDS011;60173;52.112;8.648;2023-10-19T05:19:10;27.00;;;18.63;;
72261;SDS011;60173;52.112;8.648;2023-10-19T05:21:36;26.15;;;18.52;;
72261;SDS011;60173;52.112;8.648;2023-10-19T05:24:03;26.05;;;18.88;;
72261;SDS011;60173;52.112;8.648;2023-10-19T05:26:29;31.08;;;21.77;;
72261;SDS011;60173;52.112;8.648;2023-10-19T05:28:56;25.85;;;18.55;;
72261;SDS011;60173;52.112;8.648;2023-10-19T05:31:22;20.80;;;15.00;;
72261;SDS011;60173;52.112;8.648;2023-10-19T05:33:49;25.35;;;16.38;;
72261;SDS011;60173;52.112;8.648;2023-10-19T05:36:15;30.33;;;20.33;;
72261;SDS011;60173;52.112;8.648;2023-10-19T05:38:42;33.20;;;20.45;;
72261;SDS011;60173;52.112;8.648;2023-10-19T05:41:09;31.00;;;20.45;;
72261;SDS011;60173;52.112;8.648;2023-10-19T05:43:35;33.97;;;20.00;;
72261;SDS011;60173;52.112;8.648;2023-10-19T05:46:02;31.05;;;19.95;;
72261;SDS011;60173;52.112;8.648;2023-10-19T05:48:28;30.02;;;19.25;;
72261;SDS011;60173;52.112;8.648;2023-10-19T05:50:55;28.67;;;18.90;;
72261;SDS011;60173;52.112;8.648;2023-10-19T05:53:21;27.80;;;18.35;;
72261;SDS011;60173;52.112;8.648;2023-10-19T05:55:48;27.67;;;18.67;;
72261;SDS011;60173;52.112;8.648;2023-10-19T05:58:15;29.38;;;19.85;;
72261;SDS011;60173;52.112;8.648;2023-10-19T06:00:42;34.60;;;22.48;;
72261;SDS011;60173;52.112;8.648;2023-10-19T06:03:08;31.42;;;22.52;;
72261;SDS011;60173;52.112;8.648;2023-10-19T06:05:34;33.65;;;22.90;;
72261;SDS011;60173;52.112;8.648;2023-10-19T06:08:01;30.23;;;21.58;;
72261;SDS011;60173;52.112;8.648;2023-10-19T06:10:28;35.22;;;21.50;;
72261;SDS011;60173;52.112;8.648;2023-10-19T06:12:54;28.90;;;20.13;;
72261;SDS011;60173;52.112;8.648;2023-10-19T06:15:22;33.40;;;21.33;;
72261;SDS011;60173;52.112;8.648;2023-10-19T06:17:49;32.35;;;22.33;;
72261;SDS011;60173;52.112;8.648;2023-10-19T06:20:16;42.50;;;25.13;;
72261;SDS011;60173;52.112;8.648;2023-10-19T06:22:43;32.10;;;23.10;;
72261;SDS011;60173;52.112;8.648;2023-10-19T06:25:09;36.35;;;24.60;;
72261;SDS011;60173;52.112;8.648;2023-10-19T06:27:36;38.53;;;24.67;;
72261;SDS011;60173;52.112;8.648;2023-10-19T06:30:02;34.78;;;22.75;;
72261;SDS011;60173;52.112;8.648;2023-10-19T06:32:29;37.60;;;26.13;;
72261;SDS011;60173;52.112;8.648;2023-10-19T06:34:57;39.03;;;24.90;;
72261;SDS011;60173;52.112;8.648;2023-10-19T06:37:25;32.00;;;22.63;;
72261;SDS011;60173;52.112;8.648;2023-10-19T06:39:52;31.73;;;21.77;;
72261;SDS011;60173;52.112;8.648;2023-10-19T06:42:19;35.38;;;24.73;;
72261;SDS011;60173;52.112;8.648;2023-10-19T06:44:45;34.80;;;22.65;;
72261;SDS011;60173;52.112;8.648;2023-10-19T06:47:12;34.15;;;23.17;;
72261;SDS011;60173;52.112;8.648;2023-10-19T06:49:38;30.65;;;20.50;;
72261;SDS011;60173;52.112;8.648;2023-10-19T06:52:05;27.70;;;17.92;;
72261;SDS011;60173;52.112;8.648;2023-10-19T06:54:31;25.80;;;17.30;;
72261;SDS011;60173;52.112;8.648;2023-10-19T06:56:58;27.17;;;17.67;;
72261;SDS011;60173;52.112;8.648;2023-10-19T06:59:24;27.45;;;16.90;;
72261;SDS011;60173;52.112;8.648;2023-10-19T07:01:51;25.05;;;17.48;;
72261;SDS011;60173;52.112;8.648;2023-10-19T07:04:17;26.85;;;16.42;;
72261;SDS011;60173;52.112;8.648;2023-10-19T07:06:44;27.10;;;17.13;;
72261;SDS011;60173;52.112;8.648;2023-10-19T07:09:10;23.13;;;15.95;;
72261;SDS011;60173;52.112;8.648;2023-10-19T07:11:37;22.55;;;15.55;;
72261;SDS011;60173;52.112;8.648;2023-10-19T07:14:03;28.05;;;17.15;;
72261;SDS011;60173;52.112;8.648;2023-10-19T07:16:29;26.52;;;17.63;;
72261;SDS011;60173;52.112;8.648;2023-10-19T07:18:56;29.55;;;20.02;;
72261;SDS011;60173;52.112;8.648;2023-10-19T07:21:22;26.67;;;17.83;;
72261;SDS011;60173;52.112;8.648;2023-10-19T07:23:49;20.77;;;15.02;;
72261;SDS011;60173;52.112;8.648;2023-10-19T07:26:15;22.75;;;15.40;;
72261;SDS011;60173;52.112;8.648;2023-10-19T07:28:41;21.73;;;15.10;;
72261;SDS011;60173;52.112;8.648;2023-10-19T07:31:08;24.65;;;13.93;;
72261;SDS011;60173;52.112;8.648;2023-10-19T07:33:34;25.20;;;17.27;;
72261;SDS011;60173;52.112;8.648;2023-10-19T07:36:01;23.50;;;16.80;;
72261;SDS011;60173;52.112;8.648;2023-10-19T07:38:27;26.02;;;18.65;;
72261;SDS011;60173;52.112;8.648;2023-10-19T07:40:53;28.73;;;19.70;;
72261;SDS011;60173;52.112;8.648;2023-10-19T07:43:20;28.50;;;20.15;;
72261;SDS011;60173;52.112;8.648;2023-10-19T07:45:48;26.92;;;18.90;;
72261;SDS011;60173;52.112;8.648;2023-10-19T07:48:14;26.38;;;17.58;;
72261;SDS011;60173;52.112;8.648;2023-10-19T07:50:40;21.85;;;14.90;;
72261;SDS011;60173;52.112;8.648;2023-10-19T07:53:07;18.00;;;12.90;;
72261;SDS011;60173;52.112;8.648;2023-10-19T07:55:34;15.25;;;11.57;;
72261;SDS011;60173;52.112;8.648;2023-10-19T07:58:01;14.98;;;11.55;;
72261;SDS011;60173;52.112;8.648;2023-10-19T08:00:27;20.25;;;14.48;;
72261;SDS011;60173;52.112;8.648;2023-10-19T08:02:54;22.25;;;14.45;;
72261;SDS011;60173;52.112;8.648;2023-10-19T08:05:21;18.42;;;13.30;;
72261;SDS011;60173;52.112;8.648;2023-10-19T08:07:47;15.63;;;11.98;;
72261;SDS011;60173;52.112;8.648;2023-10-19T08:10:15;14.70;;;10.57;;
72261;SDS011;60173;52.112;8.648;2023-10-19T08:12:44;17.52;;;11.38;;
72261;SDS011;60173;52.112;8.648;2023-10-19T08:15:11;15.48;;;10.60;;
72261;SDS011;60173;52.112;8.648;2023-10-19T08:17:39;15.18;;;11.32;;
72261;SDS011;60173;52.112;8.648;2023-10-19T08:20:06;17.55;;;12.57;;
72261;SDS011;60173;52.112;8.648;2023-10-19T08:22:35;17.65;;;12.55;;
72261;SDS011;60173;52.112;8.648;2023-10-19T08:25:03;15.50;;;12.80;;
72261;SDS011;60173;52.112;8.648;2023-10-19T08:27:30;15.68;;;11.50;;
72261;SDS011;60173;52.112;8.648;2023-10-19T08:29:56;12.07;;;9.95;;
72261;SDS011;60173;52.112;8.648;2023-10-19T08:32:23;15.38;;;9.57;;
72261;SDS011;60173;52.112;8.648;2023-10-19T08:34:49;15.65;;;11.15;;
72261;SDS011;60173;52.112;8.648;2023-10-19T08:37:15;15.13;;;9.80;;
72261;SDS011;60173;52.112;8.648;2023-10-19T08:39:42;16.38;;;11.05;;
72261;SDS011;60173;52.112;8.648;2023-10-19T08:42:08;14.35;;;10.70;;
72261;SDS011;60173;52.112;8.648;2023-10-19T08:44:35;16.77;;;10.82;;
72261;SDS011;60173;52.112;8.648;2023-10-19T08:47:01;18.13;;;12.75;;
72261;SDS011;60173;52.112;8.648;2023-10-19T08:49:28;17.30;;;11.48;;
72261;SDS011;60173;52.112;8.648;2023-10-19T08:51:54;17.90;;;11.73;;
72261;SDS011;60173;52.112;8.648;2023-10-19T08:54:23;18.08;;;11.80;;
72261;SDS011;60173;52.112;8.648;2023-10-19T08:56:49;15.75;;;11.43;;
72261;SDS011;60173;52.112;8.648;2023-10-19T08:59:16;14.25;;;11.18;;
72261;SDS011;60173;52.112;8.648;2023-10-19T09:01:42;12.88;;;9.52;;
72261;SDS011;60173;52.112;8.648;2023-10-19T09:04:10;14.68;;;9.07;;
72261;SDS011;60173;52.112;8.648;2023-10-19T09:06:37;11.88;;;9.35;;
72261;SDS011;60173;52.112;8.648;2023-10-19T09:09:03;15.65;;;11.80;;
72261;SDS011;60173;52.112;8.648;2023-10-19T09:11:30;14.38;;;9.48;;
72261;SDS011;60173;52.112;8.648;2023-10-19T09:13:57;12.27;;;9.05;;
72261;SDS011;60173;52.112;8.648;2023-10-19T09:16:23;13.05;;;8.93;;
72261;SDS011;60173;52.112;8.648;2023-10-19T09:18:50;14.07;;;8.82;;
72261;SDS011;60173;52.112;8.648;2023-10-19T09:21:20;12.23;;;8.27;;
72261;SDS011;60173;52.112;8.648;2023-10-19T09:23:46;13.63;;;9.68;;
72261;SDS011;60173;52.112;8.648;2023-10-19T09:26:13;12.63;;;8.43;;
72261;SDS011;60173;52.112;8.648;2023-10-19T09:28:39;12.30;;;7.93;;
72261;SDS011;60173;52.112;8.648;2023-10-19T09:31:06;11.27;;;8.55;;
72261;SDS011;60173;52.112;8.648;2023-10-19T09:33:33;9.18;;;7.28;;
72261;SDS011;60173;52.112;8.648;2023-10-19T09:36:00;10.05;;;7.85;;
72261;SDS011;60173;52.112;8.648;2023-10-19T09:38:28;10.70;;;7.57;;
72261;SDS011;60173;52.112;8.648;2023-10-19T09:40:54;10.10;;;7.10;;
72261;SDS011;60173;52.112;8.648;2023-10-19T09:43:27;8.20;;;6.35;;
72261;SDS011;60173;52.112;8.648;2023-10-19T09:46:00;8.23;;;6.30;;
72261;SDS011;60173;52.112;8.648;2023-10-19T09:48:30;8.18;;;5.85;;
72261;SDS011;60173;52.112;8.648;2023-10-19T09:50:57;8.05;;;5.75;;
72261;SDS011;60173;52.112;8.648;2023-10-19T09:53:26;10.65;;;6.25;;
72261;SDS011;60173;52.112;8.648;2023-10-19T09:55:58;9.13;;;6.40;;
72261;SDS011;60173;52.112;8.648;2023-10-19T09:58:29;7.40;;;5.68;;
72261;SDS011;60173;52.112;8.648;2023-10-19T10:01:01;7.80;;;5.35;;
72261;SDS011;60173;52.112;8.648;2023-10-19T10:03:43;10.65;;;6.60;;
72261;SDS011;60173;52.112;8.648;2023-10-19T10:06:12;10.43;;;6.28;;
72261;SDS011;60173;52.112;8.648;2023-10-19T10:08:43;7.43;;;5.80;;
72261;SDS011;60173;52.112;8.648;2023-10-19T10:11:20;6.95;;;5.43;;
72261;SDS011;60173;52.112;8.648;2023-10-19T10:13:52;6.75;;;5.20;;
72261;SDS011;60173;52.112;8.648;2023-10-19T10:16:21;10.52;;;6.22;;
72261;SDS011;60173;52.112;8.648;2023-10-19T10:18:50;9.57;;;6.20;;
72261;SDS011;60173;52.112;8.648;2023-10-19T10:21:21;8.48;;;5.65;;
72261;SDS011;60173;52.112;8.648;2023-10-19T10:23:52;7.95;;;5.32;;
72261;SDS011;60173;52.112;8.648;2023-10-19T10:26:24;7.90;;;5.63;;
72261;SDS011;60173;52.112;8.648;2023-10-19T10:29:11;9.68;;;5.80;;
72261;SDS011;60173;52.112;8.648;2023-10-19T10:31:43;6.80;;;4.97;;
72261;SDS011;60173;52.112;8.648;2023-10-19T10:34:10;6.85;;;5.05;;
72261;SDS011;60173;52.112;8.648;2023-10-19T10:39:42;8.02;;;5.18;;
72261;SDS011;60173;52.112;8.648;2023-10-19T10:42:09;8.02;;;6.03;;
72261;SDS011;60173;52.112;8.648;2023-10-19T10:47:07;8.05;;;6.32;;
72261;SDS011;60173;52.112;8.648;2023-10-19T10:49:47;7.57;;;5.57;;
72261;SDS011;60173;52.112;8.648;2023-10-19T10:52:30;7.57;;;4.95;;
72261;SDS011;60173;52.112;8.648;2023-10-19T10:55:06;9.73;;;5.20;;
72261;SDS011;60173;52.112;8.648;2023-10-19T10:57:34;8.90;;;5.90;;
72261;SDS011;60173;52.112;8.648;2023-10-19T11:00:05;7.63;;;5.28;;
72261;SDS011;60173;52.112;8.648;2023-10-19T11:02:32;11.88;;;6.63;;
72261;SDS011;60173;52.112;8.648;2023-10-19T11:05:00;8.20;;;6.07;;
72261;SDS011;60173;52.112;8.648;2023-10-19T11:07:27;14.77;;;6.38;;
72261;SDS011;60173;52.112;8.648;2023-10-19T11:09:54;7.97;;;5.15;;
72261;SDS011;60173;52.112;8.648;2023-10-19T11:12:22;8.98;;;5.60;;
72261;SDS011;60173;52.112;8.648;2023-10-19T11:14:52;8.85;;;5.30;;
72261;SDS011;60173;52.112;8.648;2023-10-19T11:17:19;8.48;;;5.30;;
72261;SDS011;60173;52.112;8.648;2023-10-19T11:19:46;8.55;;;5.10;;
72261;SDS011;60173;52.112;8.648;2023-10-19T11:22:13;8.35;;;5.05;;
72261;SDS011;60173;52.112;8.648;2023-10-19T11:24:39;9.65;;;5.47;;
72261;SDS011;60173;52.112;8.648;2023-10-19T11:27:06;10.10;;;5.60;;
72261;SDS011;60173;52.112;8.648;2023-10-19T11:29:32;7.40;;;5.03;;
72261;SDS011;60173;52.112;8.648;2023-10-19T11:31:59;12.38;;;5.93;;
72261;SDS011;60173;52.112;8.648;2023-10-19T11:34:26;8.52;;;5.28;;
72261;SDS011;60173;52.112;8.648;2023-10-19T11:36:53;8.57;;;5.30;;
72261;SDS011;60173;52.112;8.648;2023-10-19T11:39:20;7.72;;;5.30;;
72261;SDS011;60173;52.112;8.648;2023-10-19T11:41:46;13.25;;;6.88;;
72261;SDS011;60173;52.112;8.648;2023-10-19T11:44:12;10.65;;;4.93;;
72261;SDS011;60173;52.112;8.648;2023-10-19T11:46:39;6.65;;;5.03;;
72261;SDS011;60173;52.112;8.648;2023-10-19T11:49:06;8.02;;;4.97;;
72261;SDS011;60173;52.112;8.648;2023-10-19T11:51:32;7.82;;;5.28;;
72261;SDS011;60173;52.112;8.648;2023-10-19T11:53:58;7.07;;;5.07;;
72261;SDS011;60173;52.112;8.648;2023-10-19T11:56:25;10.25;;;5.35;;
72261;SDS011;60173;52.112;8.648;2023-10-19T11:58:51;6.30;;;4.75;;
72261;SDS011;60173;52.112;8.648;2023-10-19T12:01:18;7.53;;;5.15;;
72261;SDS011;60173;52.112;8.648;2023-10-19T12:03:44;8.75;;;4.75;;
72261;SDS011;60173;52.112;8.648;2023-10-19T12:06:11;7.50;;;5.47;;
72261;SDS011;60173;52.112;8.648;2023-10-19T12:08:38;7.15;;;5.00;;
72261;SDS011;60173;52.112;8.648;2023-10-19T12:11:05;9.15;;;5.38;;
72261;SDS011;60173;52.112;8.648;2023-10-19T12:13:31;8.15;;;5.00;;
72261;SDS011;60173;52.112;8.648;2023-10-19T12:15:58;9.68;;;5.60;;
72261;SDS011;60173;52.112;8.648;2023-10-19T12:18:24;7.82;;;5.13;;
72261;SDS011;60173;52.112;8.648;2023-10-19T12:20:52;8.98;;;5.90;;
72261;SDS011;60173;52.112;8.648;2023-10-19T12:23:18;8.15;;;5.05;;
72261;SDS011;60173;52.112;8.648;2023-10-19T12:25:45;6.10;;;4.55;;
72261;SDS011;60173;52.112;8.648;2023-10-19T12:28:22;7.53;;;5.40;;
72261;SDS011;60173;52.112;8.648;2023-10-19T12:30:48;8.13;;;4.85;;
72261;SDS011;60173;52.112;8.648;2023-10-19T12:33:15;6.80;;;4.60;;
72261;SDS011;60173;52.112;8.648;2023-10-19T12:35:42;8.75;;;5.35;;
72261;SDS011;60173;52.112;8.648;2023-10-19T12:38:09;6.35;;;4.85;;
72261;SDS011;60173;52.112;8.648;2023-10-19T12:40:35;8.55;;;5.75;;
72261;SDS011;60173;52.112;8.648;2023-10-19T12:43:03;9.23;;;5.30;;
72261;SDS011;60173;52.112;8.648;2023-10-19T12:45:30;7.22;;;4.63;;
72261;SDS011;60173;52.112;8.648;2023-10-19T12:47:56;6.35;;;4.68;;
72261;SDS011;60173;52.112;8.648;2023-10-19T12:50:23;7.85;;;5.18;;
72261;SDS011;60173;52.112;8.648;2023-10-19T12:52:49;8.32;;;5.00;;
72261;SDS011;60173;52.112;8.648;2023-10-19T12:55:16;7.32;;;4.50;;
72261;SDS011;60173;52.112;8.648;2023-10-19T12:57:43;7.18;;;5.20;;
72261;SDS011;60173;52.112;8.648;2023-10-19T13:00:10;8.82;;;4.75;;
72261;SDS011;60173;52.112;8.648;2023-10-19T13:02:36;9.65;;;4.85;;
72261;SDS011;60173;52.112;8.648;2023-10-19T13:05:03;8.18;;;4.85;;
72261;SDS011;60173;52.112;8.648;2023-10-19T13:07:30;6.97;;;4.88;;
72261;SDS011;60173;52.112;8.648;2023-10-19T13:09:56;8.43;;;4.97;;
72261;SDS011;60173;52.112;8.648;2023-10-19T13:12:23;9.82;;;4.47;;
72261;SDS011;60173;52.112;8.648;2023-10-19T13:14:49;6.78;;;4.07;;
72261;SDS011;60173;52.112;8.648;2023-10-19T13:17:16;8.90;;;4.93;;
72261;SDS011;60173;52.112;8.648;2023-10-19T13:19:42;6.30;;;4.95;;
72261;SDS011;60173;52.112;8.648;2023-10-19T13:22:08;8.32;;;5.20;;
72261;SDS011;60173;52.112;8.648;2023-10-19T13:24:35;9.32;;;4.45;;
72261;SDS011;60173;52.112;8.648;2023-10-19T13:27:01;6.57;;;4.50;;
72261;SDS011;60173;52.112;8.648;2023-10-19T13:29:28;6.72;;;4.75;;
72261;SDS011;60173;52.112;8.648;2023-10-19T13:31:54;7.32;;;4.65;;
72261;SDS011;60173;52.112;8.648;2023-10-19T13:34:20;10.52;;;5.00;;
72261;SDS011;60173;52.112;8.648;2023-10-19T13:36:47;8.95;;;5.30;;
72261;SDS011;60173;52.112;8.648;2023-10-19T13:39:13;8.05;;;5.05;;
72261;SDS011;60173;52.112;8.648;2023-10-19T13:41:40;7.50;;;5.03;;
72261;SDS011;60173;52.112;8.648;2023-10-19T13:44:06;10.02;;;5.05;;
72261;SDS011;60173;52.112;8.648;2023-10-19T13:46:33;8.63;;;5.18;;
72261;SDS011;60173;52.112;8.648;2023-10-19T13:48:59;8.00;;;4.30;;
72261;SDS011;60173;52.112;8.648;2023-10-19T13:51:25;11.43;;;5.45;;
72261;SDS011;60173;52.112;8.648;2023-10-19T13:53:52;8.77;;;4.82;;
72261;SDS011;60173;52.112;8.648;2023-10-19T13:56:18;7.47;;;4.63;;
72261;SDS011;60173;52.112;8.648;2023-10-19T13:58:45;6.80;;;4.88;;
72261;SDS011;60173;52.112;8.648;2023-10-19T14:01:11;7.82;;;4.85;;
72261;SDS011;60173;52.112;8.648;2023-10-19T14:03:40;8.00;;;5.68;;
72261;SDS011;60173;52.112;8.648;2023-10-19T14:06:14;8.07;;;5.22;;
72261;SDS011;60173;52.112;8.648;2023-10-19T14:08:41;7.32;;;4.95;;
72261;SDS011;60173;52.112;8.648;2023-10-19T14:11:07;7.97;;;4.72;;
72261;SDS011;60173;52.112;8.648;2023-10-19T14:13:34;8.57;;;5.20;;
72261;SDS011;60173;52.112;8.648;2023-10-19T14:16:07;8.93;;;4.93;;
72261;SDS011;60173;52.112;8.648;2023-10-19T14:18:35;7.55;;;4.75;;
72261;SDS011;60173;52.112;8.648;2023-10-19T14:21:15;6.22;;;4.18;;
72261;SDS011;60173;52.112;8.648;2023-10-19T14:23:42;5.90;;;4.22;;
72261;SDS011;60173;52.112;8.648;2023-10-19T14:26:09;5.78;;;4.53;;
72261;SDS011;60173;52.112;8.648;2023-10-19T14:28:36;5.18;;;3.90;;
72261;SDS011;60173;52.112;8.648;2023-10-19T14:31:03;5.90;;;3.45;;
72261;SDS011;60173;52.112;8.648;2023-10-19T14:33:30;7.35;;;4.63;;
72261;SDS011;60173;52.112;8.648;2023-10-19T14:35:57;8.35;;;4.68;;